Tsu, Japan

8:54 AM JST on March 03, 2015 (GMT +0900)
SUZUKA | Change Station
CLOSE
Current Station
Personal Weather Station
Location: %u9234%u9E7F%u5E02, %U4E09%U91CD%U770C
Elevation: 33 ft
Nearby Weather Stations

Elev 33 ft 34.88 °N, 136.57 °E | Updated 2 seconds ago

Partly Cloudy
Partly Cloudy
38.8 °F
Feels Like 39 °F
N
0.0
Wind Variable Wind from North
Gusts 0.0 mph

Today
High -- | Low -- °F
--% Chance of Precip.
Yesterday
High -- | Low -- °F
Precip. -- in
6:21 AM 5:50 PM
Waxing Gibbous, 93% visible
Pressure 30.12 in
Visibility 6.2 miles
Clouds Few 3000 ft
Windchill 39 °F
Dew Point 34 °F
Humidity 82%
Rainfall 0.00 in
Snow Depth Not available.
UV 2 out of 12
Pollen Not available.
Air Quality Not available.
Flu Activity Not available.
METAR RJGG 022330Z 01008KT 9999 FEW030 OVC/// 05/M00 Q1020 NOSIG

More Conditions Fewer Conditions

Pressure 30.12 in
Visibility 6.2 miles
Clouds Few 3000 ft
Windchill 39 °F
Dew Point 34 °F
Humidity 82%
Rainfall 0.00 in
Snow Depth Not available.
UV 2 out of 12
Pollen Not available.
Air Quality Not available.
Flu Activity Not available.
METAR RJGG 022330Z 01008KT 9999 FEW030 OVC/// 05/M00 Q1020 NOSIG

More Conditions Fewer Conditions

10-Day Weather Forecast

Almanac

Astronomy

Mar. 03, 2015 Rise Set
Actual Time
Civil Twilight
Nautical Twilight
Astronomical Twilight
Moon
Length of Visible Light
Length of Day
Tomorrow will be .
, % of the Moon is Illuminated

Today's Extremes

Country Highs Country Lows

Community

WunderPhotos

Upload Photos

1,801,998 photos uploaded!

WunderBlogs® & News

Nearby

Air Quality

  Air Quality AQ Index Pollutant
Not available.

Snow Depth

Station Depth Elevation

Earthquake Activity

City Distance Mag. Time & Date
Minimum magnitude displayed is 2.5.

Coastal Water Temperatures

Place Temperature

Nearby Weather Stations